»·PEaware :: UAL257 KSFO-KLAX

UAL257 :: KSFO-KLAX

FLIGHT INFORMATION

Flight Status: Arrived
Operator:
United Airlines
More flights by this operator :: More flights under this callsign
Pilot: Alfredo R. (12181)
Aircraft: BOEING 737-800
(B738)
More flights by this aircraft type
Origin: KSFO San Francisco Intl
United States
Destination: KLAX Los Angeles Intl
United States
More flights between these airports :: More routes between these airports
Route: +SSTIK3 EBAYE BURGL IRNMN1
File this flight plan on PilotEdge
Remarks:
Altitude:
(Current/Filed)
33,000ft
Speed:
(Current/Filed)
450kts
Departed: 21-Dec-17 09:37 PM
Arrived: 21-Dec-17 10:36 PM
Distance/Time
Traveled:
293nm/0:58
Distance/Time
To Go:
Arrived

Flight Plot

Page will automatically refresh every two minutes.

Flight plan parsing failed; only flown route is shown


Map Options




Map Legend


Flown Route
Filed Route
Departure Airport
Arrival Airport
Navaid (VOR, NDB)
Fix

Horizontal Profiles

Position Reports

Time Latitude Longitude Heading Altitude Ground
Speed
21-Dec-17 21:15 37.619186 -122.383517 291 30ft 0kts
21-Dec-17 21:16 37.619186 -122.383517 291 30ft 0kts
21-Dec-17 21:17 37.619186 -122.383517 291 30ft 0kts
21-Dec-17 21:18 37.619186 -122.383517 291 30ft 0kts
21-Dec-17 21:19 37.619186 -122.383517 291 30ft 0kts
21-Dec-17 21:20 37.619186 -122.383517 291 30ft 0kts
21-Dec-17 21:21 37.619186 -122.383517 291 30ft 0kts
21-Dec-17 21:22 37.619186 -122.383517 291 30ft 0kts
21-Dec-17 21:23 37.619186 -122.383517 291 30ft 0kts
21-Dec-17 21:24 37.619186 -122.383517 291 30ft 0kts
21-Dec-17 21:25 37.619186 -122.383517 291 30ft 0kts
21-Dec-17 21:26 37.619095 -122.383215 291 30ft 2kts
21-Dec-17 21:27 37.618676 -122.383108 26 30ft 2kts
21-Dec-17 21:28 37.618425 -122.383275 28 30ft 0kts
21-Dec-17 21:29 37.618425 -122.383274 28 30ft 0kts
21-Dec-17 21:30 37.618440 -122.383264 28 30ft 0kts
21-Dec-17 21:31 37.619120 -122.382794 29 30ft 2kts
21-Dec-17 21:32 37.619214 -122.382727 29 30ft 0kts
21-Dec-17 21:33 37.619256 -122.382697 29 30ft 0kts
21-Dec-17 21:34 37.619256 -122.382697 29 30ft 0kts
21-Dec-17 21:35 37.619367 -122.382618 29 30ft 2kts
21-Dec-17 21:36 37.619310 -122.381148 119 30ft 7kts
21-Dec-17 21:37 37.617623 -122.378633 176 28ft 11kts
21-Dec-17 21:38 37.614492 -122.380115 207 30ft 13kts
21-Dec-17 21:39 37.610681 -122.382640 208 30ft 14kts
21-Dec-17 21:40 37.609201 -122.383460 168 30ft 0kts
21-Dec-17 21:41 37.609070 -122.383384 146 30ft 1kts
21-Dec-17 21:42 37.609232 -122.382050 29 29ft 0kts
21-Dec-17 21:43 37.612276 -122.380026 28 30ft 52kts
21-Dec-17 21:44 37.644903 -122.357497 33 932ft 166kts
21-Dec-17 21:45 37.689804 -122.338205 347 2643ft 194kts
21-Dec-17 21:46 37.702771 -122.400376 238 4192ft 235kts
21-Dec-17 21:47 37.644314 -122.435723 194 6267ft 258kts
21-Dec-17 21:48 37.568334 -122.456539 189 8148ft 298kts
21-Dec-17 21:49 37.486590 -122.461084 149 10421ft 312kts
21-Dec-17 21:50 37.426428 -122.389029 131 12178ft 337kts
21-Dec-17 21:51 37.366105 -122.309246 131 14301ft 351kts
21-Dec-17 21:52 37.300196 -122.221854 131 16467ft 373kts
21-Dec-17 21:53 37.228811 -122.127075 131 18874ft 391kts
21-Dec-17 21:54 37.158081 -122.033089 131 20425ft 403kts
21-Dec-17 21:55 37.084034 -121.934593 131 22562ft 418kts
21-Dec-17 21:56 37.010454 -121.836623 130 24443ft 433kts
21-Dec-17 21:57 36.927225 -121.725698 129 26353ft 448kts
21-Dec-17 21:58 36.841977 -121.611943 129 28505ft 449kts
21-Dec-17 21:59 36.756960 -121.498352 128 30405ft 448kts
21-Dec-17 22:00 36.672820 -121.385792 127 32223ft 443kts
21-Dec-17 22:01 36.589084 -121.273464 128 33305ft 450kts
21-Dec-17 22:02 36.501437 -121.155825 127 33329ft 481kts
21-Dec-17 22:03 36.408874 -121.029919 125 33329ft 506kts
21-Dec-17 22:04 36.316753 -120.898375 126 33325ft 506kts
21-Dec-17 22:05 36.225281 -120.768507 125 33325ft 505kts
21-Dec-17 22:06 36.133333 -120.637831 125 33324ft 504kts
21-Dec-17 22:07 36.041606 -120.507206 126 33327ft 505kts
21-Dec-17 22:08 35.949835 -120.376390 126 33335ft 506kts
21-Dec-17 22:09 35.854914 -120.248362 140 33310ft 513kts
21-Dec-17 22:10 35.732361 -120.157293 146 33328ft 516kts
21-Dec-17 22:11 35.610362 -120.065731 145 33325ft 515kts
21-Dec-17 22:12 35.488473 -119.974185 146 32766ft 515kts
21-Dec-17 22:13 35.368967 -119.884406 145 32002ft 516kts
21-Dec-17 22:14 35.250738 -119.789788 138 31331ft 508kts
21-Dec-17 22:15 35.140469 -119.686057 138 30649ft 498kts
21-Dec-17 22:16 35.030586 -119.583729 138 29410ft 499kts
21-Dec-17 22:17 34.922721 -119.483294 138 27977ft 486kts
21-Dec-17 22:18 34.814675 -119.386307 140 26440ft 475kts
21-Dec-17 22:19 34.728700 -119.309727 141 24891ft 451kts
21-Dec-17 22:20 34.628917 -119.222787 141 22876ft 439kts
21-Dec-17 22:21 34.516394 -119.124861 141 20536ft 419kts
21-Dec-17 22:22 34.439833 -119.057050 141 18984ft 406kts
21-Dec-17 22:23 34.334983 -118.966180 141 16896ft 390kts
21-Dec-17 22:24 34.264390 -118.901991 140 15405ft 375kts
21-Dec-17 22:25 34.185668 -118.829789 139 13559ft 337kts
21-Dec-17 22:26 34.116970 -118.758912 134 11924ft 312kts
21-Dec-17 22:27 34.054422 -118.690658 133 10668ft 300kts
21-Dec-17 22:28 34.024900 -118.606332 91 9519ft 272kts
21-Dec-17 22:29 34.016228 -118.519293 86 8334ft 258kts
21-Dec-17 22:30 34.018239 -118.439439 81 7224ft 229kts
21-Dec-17 22:31 34.020864 -118.363597 81 6045ft 225kts
21-Dec-17 22:32 34.023861 -118.291050 82 4893ft 220kts
21-Dec-17 22:33 34.027223 -118.220707 81 3802ft 204kts
21-Dec-17 22:34 34.028622 -118.153512 109 2967ft 199kts
21-Dec-17 22:35 33.978551 -118.131691 171 2972ft 199kts
21-Dec-17 22:36 33.927966 -118.152707 265 2939ft 179kts
21-Dec-17 22:37 33.934679 -118.206590 291 2303ft 161kts
21-Dec-17 22:38 33.948353 -118.257183 289 1873ft 160kts
21-Dec-17 22:39 33.944823 -118.310696 265 1184ft 150kts
21-Dec-17 22:40 33.939777 -118.358113 266 546ft 142kts
21-Dec-17 22:41 33.935624 -118.399380 264 115ft 47kts
21-Dec-17 22:42 33.935953 -118.406910 270 126ft 5kts
21-Dec-17 22:43 33.935925 -118.407524 264 126ft 1kts
21-Dec-17 22:44 33.936697 -118.408957 350 126ft 6kts
21-Dec-17 22:45 33.937516 -118.409067 357 126ft 3kts
21-Dec-17 22:46 33.938339 -118.404228 83 121ft 15kts
21-Dec-17 22:47 33.940244 -118.403082 353 119ft 8kts
21-Dec-17 22:48 33.940825 -118.402575 113 119ft 0kts
21-Dec-17 22:49 33.940809 -118.402531 114 119ft 0kts

Navigation Log

Ident Type
Flight plan parsing failed, navigation log unavailable